createdAt,value
2018-07-15T00:00:02.326Z,15.6
2018-07-15T00:15:02.666Z,15.1
2018-07-15T00:30:03.064Z,15.2
2018-07-15T00:45:02.430Z,14.9
2018-07-15T01:00:02.781Z,14.9
2018-07-15T01:15:03.099Z,14.8
2018-07-15T01:30:02.470Z,14.8
2018-07-15T01:45:02.789Z,14.6
2018-07-15T02:00:03.115Z,14.4
2018-07-15T02:15:02.463Z,14.2
2018-07-15T02:30:02.872Z,14.1
2018-07-15T02:45:03.263Z,14.2
2018-07-15T03:00:02.583Z,14.2
2018-07-15T03:15:02.959Z,14.1
2018-07-15T03:30:02.367Z,14
2018-07-15T03:45:02.688Z,14.2
2018-07-15T04:00:02.981Z,14.1
2018-07-15T04:15:02.284Z,14.2
2018-07-15T04:30:02.690Z,14.3
2018-07-15T04:45:02.980Z,14.6
2018-07-15T05:00:02.350Z,14.6
2018-07-15T05:15:02.660Z,14.9
2018-07-15T05:30:03.055Z,15.4
2018-07-15T05:45:02.385Z,15.7
2018-07-15T06:00:02.655Z,16.1
2018-07-15T06:15:02.988Z,16.4
2018-07-15T06:30:02.451Z,16.7
2018-07-15T06:45:02.763Z,17.2
2018-07-15T07:00:02.843Z,17.4
2018-07-15T07:15:03.209Z,17.9
2018-07-15T07:30:02.594Z,18.9
2018-07-15T07:45:02.859Z,19.8
2018-07-15T08:00:03.198Z,20.7
2018-07-15T08:15:02.573Z,21.8
2018-07-15T08:30:02.976Z,23.5
2018-07-15T08:45:02.340Z,23.2
2018-07-15T09:00:02.680Z,24.4
2018-07-15T09:15:02.966Z,24.9
2018-07-15T09:30:02.384Z,25.6
2018-07-15T09:45:02.675Z,27.1
2018-07-15T10:00:02.993Z,26.1
2018-07-15T10:15:02.348Z,27.2
2018-07-15T10:30:02.780Z,27.1
2018-07-15T10:45:03.131Z,27.8
2018-07-15T11:00:02.482Z,29.2
2018-07-15T11:15:02.796Z,30
2018-07-15T11:30:03.216Z,29.9
2018-07-15T11:45:02.544Z,30.2
2018-07-15T12:00:02.864Z,30.1
2018-07-15T12:15:03.203Z,28.8
2018-07-15T12:30:02.646Z,29.2
2018-07-15T12:45:02.974Z,30.3
2018-07-15T13:00:02.280Z,29.8
2018-07-15T13:15:02.576Z,28.1
2018-07-15T13:30:02.976Z,28.4
2018-07-15T13:45:02.346Z,29.4
2018-07-15T14:00:02.670Z,27.9
2018-07-15T14:15:02.979Z,28.2
2018-07-15T14:30:02.375Z,27.8
2018-07-15T14:45:02.680Z,24.8
2018-07-15T15:00:02.993Z,22.2
2018-07-15T15:15:02.370Z,21.6
2018-07-15T15:30:02.786Z,20.9
2018-07-15T15:45:03.162Z,19.1
2018-07-15T16:00:02.585Z,19.1
2018-07-15T16:15:02.882Z,18.4
2018-07-15T16:30:02.247Z,19
2018-07-15T16:45:02.592Z,18.1
2018-07-15T17:00:02.903Z,17.9
2018-07-15T17:15:03.242Z,18.3
2018-07-15T17:30:02.636Z,18.1
2018-07-15T17:45:02.988Z,18.2
2018-07-15T18:00:02.292Z,17.8
2018-07-15T18:15:02.593Z,18.1
2018-07-15T18:30:02.979Z,17.8
2018-07-15T18:45:02.404Z,17.6
2018-07-15T19:00:02.791Z,17.5
2018-07-15T19:15:03.118Z,16.9
2018-07-15T19:30:02.565Z,16.7
2018-07-15T19:45:02.848Z,16.6
2018-07-15T20:00:03.186Z,16.6
2018-07-15T20:15:02.536Z,16.2
2018-07-15T20:30:02.969Z,16.3
2018-07-15T20:45:02.259Z,16.2
2018-07-15T21:00:02.595Z,16.2
2018-07-15T21:15:02.876Z,15.8
2018-07-15T21:30:02.287Z,16
2018-07-15T21:45:02.575Z,15.8
2018-07-15T22:00:02.902Z,15.8
2018-07-15T22:15:03.215Z,15.5
2018-07-15T22:30:02.684Z,15.6
2018-07-15T22:45:02.992Z,15.5
2018-07-15T23:00:02.360Z,15.3
2018-07-15T23:15:02.668Z,15.2
2018-07-15T23:30:03.098Z,15.3
2018-07-15T23:45:02.459Z,15.1
